createdAt,value
2018-03-28T00:00:45.708Z,18.66
2018-03-28T00:01:45.743Z,18.69
2018-03-28T00:02:45.683Z,18.65
2018-03-28T00:03:45.653Z,18.64
2018-03-28T00:04:45.670Z,18.69
2018-03-28T00:05:45.934Z,18.63
2018-03-28T00:06:45.694Z,18.62
2018-03-28T00:07:45.675Z,18.68
2018-03-28T00:08:45.679Z,18.62
2018-03-28T00:09:45.718Z,18.64
2018-03-28T00:10:45.836Z,18.67
2018-03-28T00:11:45.739Z,18.62
2018-03-28T00:12:45.695Z,18.62
2018-03-28T00:13:45.666Z,18.66
2018-03-28T00:14:45.707Z,18.62
2018-03-28T00:15:45.751Z,18.61
2018-03-28T00:16:45.669Z,18.66
2018-03-28T00:17:45.685Z,18.61
2018-03-28T00:18:45.646Z,18.61
2018-03-28T00:19:45.699Z,18.64
2018-03-28T00:20:45.685Z,18.6
2018-03-28T00:21:45.749Z,18.59
2018-03-28T00:22:45.668Z,18.65
2018-03-28T00:23:45.678Z,18.59
2018-03-28T00:24:45.715Z,18.59
2018-03-28T00:25:45.674Z,18.63
2018-03-28T00:26:45.710Z,18.57
2018-03-28T00:27:45.723Z,18.58
2018-03-28T00:28:45.684Z,18.63
2018-03-28T00:29:45.667Z,18.57
2018-03-28T00:30:45.701Z,18.56
2018-03-28T00:31:45.688Z,18.61
2018-03-28T00:32:45.682Z,18.57
2018-03-28T00:33:45.697Z,18.55
2018-03-28T00:34:45.684Z,18.6
2018-03-28T00:35:45.710Z,18.54
2018-03-28T00:36:45.748Z,18.55
2018-03-28T00:37:45.663Z,18.6
2018-03-28T00:38:45.660Z,18.56
2018-03-28T00:39:45.658Z,18.55
2018-03-28T00:40:45.685Z,18.58
2018-03-28T00:41:45.700Z,18.55
2018-03-28T00:42:45.727Z,18.54
2018-03-28T00:43:45.674Z,18.58
2018-03-28T00:44:45.662Z,18.53
2018-03-28T00:45:45.652Z,18.52
2018-03-28T00:46:45.701Z,18.57
2018-03-28T00:47:45.668Z,18.53
2018-03-28T00:48:45.658Z,18.52
2018-03-28T00:49:45.657Z,18.57
2018-03-28T00:50:45.671Z,18.51
2018-03-28T00:51:45.680Z,18.51
2018-03-28T00:52:45.677Z,18.55
2018-03-28T00:53:45.669Z,18.5
2018-03-28T00:54:45.652Z,18.52
2018-03-28T00:55:45.664Z,18.55
2018-03-28T00:56:45.692Z,18.49
2018-03-28T00:57:45.689Z,18.49
2018-03-28T00:58:45.654Z,18.54
2018-03-28T00:59:45.657Z,18.5
2018-03-28T01:00:45.695Z,18.48
2018-03-28T01:01:45.657Z,18.53
2018-03-28T01:02:45.696Z,18.48
2018-03-28T01:03:45.648Z,18.48
2018-03-28T01:04:45.661Z,18.52
2018-03-28T01:05:45.676Z,18.49
2018-03-28T01:06:45.684Z,18.47
2018-03-28T01:07:45.681Z,18.52
2018-03-28T01:08:45.652Z,18.47
2018-03-28T01:09:45.677Z,18.47
2018-03-28T01:10:45.658Z,18.51
2018-03-28T01:11:45.666Z,18.47
2018-03-28T01:12:45.672Z,18.47
2018-03-28T01:13:45.716Z,18.51
2018-03-28T01:14:45.652Z,18.44
2018-03-28T01:15:45.675Z,18.44
2018-03-28T01:16:45.662Z,18.48
2018-03-28T01:17:45.660Z,18.46
2018-03-28T01:18:45.938Z,18.44
2018-03-28T01:19:45.662Z,18.49
2018-03-28T01:20:45.654Z,18.45
2018-03-28T01:21:45.671Z,18.43
2018-03-28T01:22:45.659Z,18.48
2018-03-28T01:23:45.666Z,18.44
2018-03-28T01:24:45.743Z,18.42
2018-03-28T01:25:45.651Z,18.46
2018-03-28T01:26:45.643Z,18.44
2018-03-28T01:27:45.629Z,18.42
2018-03-28T01:28:45.685Z,18.46
2018-03-28T01:29:45.646Z,18.42
2018-03-28T01:30:45.673Z,18.42
2018-03-28T01:31:45.650Z,18.46
2018-03-28T01:32:45.662Z,18.41
2018-03-28T01:33:45.633Z,18.38
2018-03-28T01:34:45.644Z,18.45
2018-03-28T01:35:45.684Z,18.4
2018-03-28T01:36:45.652Z,18.38
2018-03-28T01:37:45.646Z,18.44
2018-03-28T01:38:45.651Z,18.4
2018-03-28T01:39:45.638Z,18.39
2018-03-28T01:40:45.653Z,18.45
2018-03-28T01:41:45.646Z,18.38
2018-03-28T01:42:45.623Z,18.37
2018-03-28T01:43:45.630Z,18.43
2018-03-28T01:44:45.680Z,18.38
2018-03-28T01:45:45.657Z,18.37
2018-03-28T01:46:45.642Z,18.43
2018-03-28T01:47:45.644Z,18.37
2018-03-28T01:48:45.636Z,18.37
2018-03-28T01:49:45.652Z,18.42
2018-03-28T01:50:45.671Z,18.35
2018-03-28T01:51:45.744Z,18.35
2018-03-28T01:52:45.742Z,18.4
2018-03-28T01:53:45.658Z,18.34
2018-03-28T01:54:45.627Z,18.35
2018-03-28T01:55:45.660Z,18.39
2018-03-28T01:56:45.646Z,18.35
2018-03-28T01:57:45.657Z,18.32
2018-03-28T01:58:45.642Z,18.38
2018-03-28T01:59:45.636Z,18.33
2018-03-28T02:00:45.636Z,18.33
2018-03-28T02:01:45.634Z,18.38
2018-03-28T02:02:45.668Z,18.32
2018-03-28T02:03:45.657Z,18.33
2018-03-28T02:04:45.634Z,18.36
2018-03-28T02:05:45.664Z,18.33
2018-03-28T02:06:45.661Z,18.31
2018-03-28T02:07:45.640Z,18.36
2018-03-28T02:08:45.630Z,18.32
2018-03-28T02:09:45.678Z,18.32
2018-03-28T02:10:45.683Z,18.36
2018-03-28T02:11:45.647Z,18.32
2018-03-28T02:12:45.670Z,18.3
2018-03-28T02:13:45.666Z,18.35
2018-03-28T02:14:45.631Z,18.3
2018-03-28T02:15:45.738Z,18.31
2018-03-28T02:16:45.625Z,18.35
2018-03-28T02:17:45.646Z,18.3
2018-03-28T02:18:45.678Z,18.3
2018-03-28T02:19:45.645Z,18.35
2018-03-28T02:20:45.628Z,18.3
2018-03-28T02:21:45.674Z,18.29
2018-03-28T02:22:45.643Z,18.34
2018-03-28T02:23:45.640Z,18.3
2018-03-28T02:24:45.678Z,18.29
2018-03-28T02:25:45.656Z,18.33
2018-03-28T02:26:45.628Z,18.29
2018-03-28T02:27:45.606Z,18.3
2018-03-28T02:28:45.626Z,18.33
2018-03-28T02:29:45.624Z,18.27
2018-03-28T02:30:45.652Z,18.29
2018-03-28T02:31:45.638Z,18.33
2018-03-28T02:32:45.636Z,18.28
2018-03-28T02:33:45.648Z,18.27
2018-03-28T02:34:45.624Z,18.32
2018-03-28T02:35:45.626Z,18.27
2018-03-28T02:36:45.609Z,18.27
2018-03-28T02:37:45.670Z,18.32
2018-03-28T02:38:45.640Z,18.28
2018-03-28T02:39:45.636Z,18.27
2018-03-28T02:40:45.638Z,18.32
2018-03-28T02:41:45.614Z,18.25
2018-03-28T02:42:45.629Z,18.26
2018-03-28T02:43:45.630Z,18.31
2018-03-28T02:44:45.639Z,18.25
2018-03-28T02:45:45.635Z,18.26
2018-03-28T02:46:45.702Z,18.31
2018-03-28T02:47:45.615Z,18.25
2018-03-28T02:48:45.626Z,18.24
2018-03-28T02:49:45.632Z,18.29
2018-03-28T02:50:45.665Z,18.24
2018-03-28T02:51:45.619Z,18.23
2018-03-28T02:52:45.619Z,18.29
2018-03-28T02:53:45.642Z,18.23
2018-03-28T02:54:45.622Z,18.23
2018-03-28T02:55:45.648Z,18.28
2018-03-28T02:56:45.632Z,18.24
2018-03-28T02:57:45.604Z,18.22
2018-03-28T02:58:45.614Z,18.27
2018-03-28T02:59:45.610Z,18.22
2018-03-28T03:00:45.620Z,18.22
2018-03-28T03:01:45.787Z,18.26
2018-03-28T03:02:45.626Z,18.23
2018-03-28T03:03:45.617Z,18.22
2018-03-28T03:04:45.675Z,18.26
2018-03-28T03:05:45.598Z,18.22
2018-03-28T03:06:45.650Z,18.21
2018-03-28T03:07:45.617Z,18.26
2018-03-28T03:08:45.624Z,18.24
2018-03-28T03:09:45.621Z,18.21
2018-03-28T03:10:45.616Z,18.26
2018-03-28T03:11:45.614Z,18.23
2018-03-28T03:12:45.623Z,18.22
2018-03-28T03:13:45.678Z,18.26
2018-03-28T03:14:45.618Z,18.21
2018-03-28T03:15:45.610Z,18.2
2018-03-28T03:16:45.651Z,18.24
2018-03-28T03:17:45.656Z,18.19
2018-03-28T03:18:45.613Z,18.2
2018-03-28T03:19:45.608Z,18.24
2018-03-28T03:20:45.628Z,18.2
2018-03-28T03:21:45.612Z,18.19
2018-03-28T03:22:45.632Z,18.23
2018-03-28T03:23:45.664Z,18.18
2018-03-28T03:24:45.620Z,18.19
2018-03-28T03:25:45.613Z,18.24
2018-03-28T03:26:45.616Z,18.18
2018-03-28T03:27:45.624Z,18.2
2018-03-28T03:28:45.614Z,18.23
2018-03-28T03:29:45.632Z,18.19
2018-03-28T03:30:45.599Z,18.19
2018-03-28T03:31:45.620Z,18.24
2018-03-28T03:32:45.630Z,18.19
2018-03-28T03:33:45.609Z,18.19
2018-03-28T03:34:45.646Z,18.23
2018-03-28T03:35:45.616Z,18.18
2018-03-28T03:36:45.611Z,18.18
2018-03-28T03:37:45.613Z,18.21
2018-03-28T03:38:45.601Z,18.17
2018-03-28T03:39:45.627Z,18.18
2018-03-28T03:40:45.607Z,18.21
2018-03-28T03:41:45.616Z,18.18
2018-03-28T03:42:45.595Z,18.15
2018-03-28T03:43:45.656Z,18.21
2018-03-28T03:44:45.600Z,18.15
2018-03-28T03:45:45.584Z,18.14
2018-03-28T03:46:45.595Z,18.18
2018-03-28T03:47:45.679Z,18.14
2018-03-28T03:48:45.605Z,18.12
2018-03-28T03:49:45.618Z,18.18
2018-03-28T03:50:45.609Z,18.14
2018-03-28T03:51:45.587Z,18.13
2018-03-28T03:52:45.757Z,18.17
2018-03-28T03:53:45.734Z,18.14
2018-03-28T03:54:45.605Z,18.14
2018-03-28T03:55:45.607Z,18.19
2018-03-28T03:56:45.595Z,18.18
2018-03-28T03:57:45.580Z,18.18
2018-03-28T03:58:45.679Z,18.21
2018-03-28T03:59:45.600Z,18.19
2018-03-28T04:00:45.592Z,18.2
2018-03-28T04:01:45.618Z,18.22
2018-03-28T04:02:45.592Z,18.22
2018-03-28T04:03:45.597Z,18.22
2018-03-28T04:04:45.596Z,18.25
2018-03-28T04:05:45.612Z,18.26
2018-03-28T04:06:45.596Z,18.26
2018-03-28T04:07:45.588Z,18.29
2018-03-28T04:08:45.600Z,18.31
2018-03-28T04:09:45.611Z,18.32
2018-03-28T04:10:45.586Z,18.34
2018-03-28T04:11:45.589Z,18.35
2018-03-28T04:12:45.580Z,18.36
2018-03-28T04:13:45.588Z,18.37
2018-03-28T04:14:45.593Z,18.37
2018-03-28T04:15:45.631Z,18.4
2018-03-28T04:16:45.589Z,18.42
2018-03-28T04:17:45.602Z,18.44
2018-03-28T04:18:45.659Z,18.45
2018-03-28T04:19:45.586Z,18.47
2018-03-28T04:20:45.606Z,18.49
2018-03-28T04:21:45.682Z,18.5
2018-03-28T04:22:45.604Z,18.51
2018-03-28T04:23:45.594Z,18.53
2018-03-28T04:24:45.621Z,18.54
2018-03-28T04:25:45.584Z,18.56
2018-03-28T04:26:45.844Z,18.58
2018-03-28T04:27:45.628Z,18.6
2018-03-28T04:28:45.634Z,18.61
2018-03-28T04:29:45.605Z,18.63
2018-03-28T04:30:45.607Z,18.66
2018-03-28T04:31:45.616Z,18.66
2018-03-28T04:32:45.594Z,18.67
2018-03-28T04:33:45.622Z,18.69
2018-03-28T04:34:45.607Z,18.7
2018-03-28T04:35:45.580Z,18.72
2018-03-28T04:36:45.621Z,18.74
2018-03-28T04:37:45.624Z,18.74
2018-03-28T04:38:45.590Z,18.75
2018-03-28T04:39:45.630Z,18.76
2018-03-28T04:40:45.634Z,18.78
2018-03-28T04:41:45.611Z,18.79
2018-03-28T04:42:45.640Z,18.81
2018-03-28T04:43:45.620Z,18.82
2018-03-28T04:44:45.591Z,18.84
2018-03-28T04:45:45.612Z,18.86
2018-03-28T04:46:45.591Z,18.87
2018-03-28T04:47:45.582Z,18.87
2018-03-28T04:48:45.579Z,18.89
2018-03-28T04:49:45.635Z,18.89
2018-03-28T04:50:45.749Z,18.92
2018-03-28T04:51:45.600Z,18.92
2018-03-28T04:52:45.608Z,18.94
2018-03-28T04:53:45.577Z,18.97
2018-03-28T04:54:45.576Z,18.97
2018-03-28T04:55:45.641Z,18.98
2018-03-28T04:56:45.582Z,18.99
2018-03-28T04:57:45.577Z,19.01
2018-03-28T04:58:45.601Z,19.01
2018-03-28T04:59:45.583Z,19.03
2018-03-28T05:00:45.608Z,19.05
2018-03-28T05:01:45.583Z,19.05
2018-03-28T05:02:45.579Z,19.07
2018-03-28T05:03:45.573Z,19.07
2018-03-28T05:04:45.575Z,19.09
2018-03-28T05:05:45.622Z,19.11
2018-03-28T05:06:45.580Z,19.11
2018-03-28T05:07:45.576Z,19.11
2018-03-28T05:08:45.624Z,19.14
2018-03-28T05:09:45.612Z,19.15
2018-03-28T05:10:45.571Z,19.15
2018-03-28T05:11:45.588Z,19.16
2018-03-28T05:12:45.590Z,19.17
2018-03-28T05:13:45.611Z,19.18
2018-03-28T05:14:45.585Z,19.17
2018-03-28T05:15:45.712Z,19.19
2018-03-28T05:16:45.574Z,19.18
2018-03-28T05:17:45.569Z,19.2
2018-03-28T05:18:45.583Z,19.21
2018-03-28T05:19:45.574Z,19.21
2018-03-28T05:20:45.624Z,19.22
2018-03-28T05:21:45.549Z,19.23
2018-03-28T05:22:45.590Z,19.23
2018-03-28T05:23:45.581Z,19.24
2018-03-28T05:24:45.580Z,19.25
2018-03-28T05:25:45.598Z,19.25
2018-03-28T05:26:45.569Z,19.25
2018-03-28T05:27:45.578Z,19.26
2018-03-28T05:28:45.580Z,19.26
2018-03-28T05:29:45.571Z,19.27
2018-03-28T05:30:45.634Z,19.29
2018-03-28T05:31:45.590Z,19.28
2018-03-28T05:32:45.570Z,19.3
2018-03-28T05:33:45.550Z,19.31
2018-03-28T05:34:45.585Z,19.31
2018-03-28T05:35:45.571Z,19.32
2018-03-28T05:36:45.581Z,19.34
2018-03-28T05:37:45.579Z,19.34
2018-03-28T05:38:45.572Z,19.34
2018-03-28T05:39:45.556Z,19.35
2018-03-28T05:40:45.833Z,19.36
2018-03-28T05:41:45.577Z,19.37
2018-03-28T05:42:45.650Z,19.39
2018-03-28T05:43:45.554Z,19.39
2018-03-28T05:44:45.565Z,19.41
2018-03-28T05:45:45.565Z,19.41
2018-03-28T05:46:45.575Z,19.42
2018-03-28T05:47:45.566Z,19.42
2018-03-28T05:48:45.586Z,19.43
2018-03-28T05:49:45.608Z,19.44
2018-03-28T05:50:45.551Z,19.44
2018-03-28T05:51:45.673Z,19.45
2018-03-28T05:52:45.565Z,19.45
2018-03-28T05:53:45.675Z,19.46
2018-03-28T05:54:45.695Z,19.48
2018-03-28T05:55:45.551Z,19.47
2018-03-28T05:56:45.602Z,19.48
2018-03-28T05:57:45.596Z,19.49
2018-03-28T05:58:45.559Z,19.48
2018-03-28T05:59:45.574Z,19.5
2018-03-28T06:00:45.605Z,19.51
2018-03-28T06:01:45.577Z,19.5
2018-03-28T06:02:45.558Z,19.52
2018-03-28T06:03:45.578Z,19.52
2018-03-28T06:04:45.560Z,19.53
2018-03-28T06:05:45.557Z,19.54
2018-03-28T06:06:45.594Z,19.54
2018-03-28T06:07:45.546Z,19.54
2018-03-28T06:08:45.570Z,19.54
2018-03-28T06:09:45.579Z,19.54
2018-03-28T06:10:45.560Z,19.57
2018-03-28T06:11:45.638Z,19.6
2018-03-28T06:12:45.596Z,19.61
2018-03-28T06:13:45.593Z,19.61
2018-03-28T06:14:45.550Z,19.62
2018-03-28T06:15:45.581Z,19.63
2018-03-28T06:16:45.594Z,19.63
2018-03-28T06:17:45.548Z,19.62
2018-03-28T06:18:45.566Z,19.63
2018-03-28T06:19:45.552Z,19.63
2018-03-28T06:20:45.544Z,19.63
2018-03-28T06:21:45.610Z,19.64
2018-03-28T06:22:45.619Z,19.64
2018-03-28T06:23:45.553Z,19.64
2018-03-28T06:24:45.582Z,19.65
2018-03-28T06:25:45.569Z,19.65
2018-03-28T06:26:45.585Z,19.67
2018-03-28T06:27:45.544Z,19.67
2018-03-28T06:28:45.551Z,19.66
2018-03-28T06:29:45.551Z,19.68
2018-03-28T06:30:45.569Z,19.68
2018-03-28T06:31:45.585Z,19.68
2018-03-28T06:32:45.553Z,19.69
2018-03-28T06:33:45.562Z,19.7
2018-03-28T06:34:45.573Z,19.7
2018-03-28T06:35:45.549Z,19.71
2018-03-28T06:36:45.571Z,19.71
2018-03-28T06:37:45.560Z,19.71
2018-03-28T06:38:45.542Z,19.73
2018-03-28T06:39:45.553Z,19.73
2018-03-28T06:40:45.538Z,19.73
2018-03-28T06:41:45.575Z,19.74
2018-03-28T06:42:45.538Z,19.73
2018-03-28T06:43:45.550Z,19.73
2018-03-28T06:44:45.552Z,19.74
2018-03-28T06:45:45.584Z,19.76
2018-03-28T06:46:45.725Z,19.76
2018-03-28T06:47:45.544Z,19.76
2018-03-28T06:48:45.588Z,19.77
2018-03-28T06:49:45.542Z,19.78
2018-03-28T06:50:45.542Z,19.78
2018-03-28T06:51:45.571Z,19.78
2018-03-28T06:52:45.535Z,19.78
2018-03-28T06:53:45.599Z,19.79
2018-03-28T06:54:45.555Z,19.8
2018-03-28T06:55:45.541Z,19.79
2018-03-28T06:56:45.580Z,19.8
2018-03-28T06:57:45.571Z,19.81
2018-03-28T06:58:45.545Z,19.81
2018-03-28T06:59:45.563Z,19.81
2018-03-28T07:00:45.531Z,19.81
2018-03-28T07:01:45.538Z,19.82
2018-03-28T07:02:45.533Z,19.82
2018-03-28T07:03:45.559Z,19.83
2018-03-28T07:04:45.549Z,19.83
2018-03-28T07:05:45.554Z,19.83
2018-03-28T07:06:45.536Z,19.81
2018-03-28T07:07:45.545Z,19.82
2018-03-28T07:08:45.556Z,19.83
2018-03-28T07:09:45.524Z,19.86
2018-03-28T07:10:45.550Z,19.87
2018-03-28T07:11:45.534Z,19.88
2018-03-28T07:12:45.581Z,19.87
2018-03-28T07:13:45.535Z,19.88
2018-03-28T07:14:45.583Z,19.88
2018-03-28T07:15:45.598Z,19.89
2018-03-28T07:16:45.541Z,19.89
2018-03-28T07:17:45.531Z,19.89
2018-03-28T07:18:45.537Z,19.89
2018-03-28T07:19:45.664Z,19.87
2018-03-28T07:20:45.595Z,19.86
2018-03-28T07:21:45.532Z,19.86
2018-03-28T07:22:45.525Z,19.86
2018-03-28T07:23:45.533Z,19.87
2018-03-28T07:24:45.596Z,19.86
2018-03-28T07:25:45.531Z,19.85
2018-03-28T07:26:45.532Z,19.86
2018-03-28T07:27:45.559Z,19.86
2018-03-28T07:28:45.528Z,19.85
2018-03-28T07:29:45.558Z,19.86
2018-03-28T07:30:45.531Z,19.85
2018-03-28T07:31:45.547Z,19.85
2018-03-28T07:32:45.590Z,19.83
2018-03-28T07:33:45.525Z,19.85
2018-03-28T07:34:45.520Z,19.83
2018-03-28T07:35:45.529Z,19.85
2018-03-28T07:36:45.531Z,19.85
2018-03-28T07:37:45.538Z,19.85
2018-03-28T07:38:45.521Z,19.83
2018-03-28T07:39:45.813Z,19.83
2018-03-28T07:40:45.526Z,19.85
2018-03-28T07:41:45.538Z,19.85
2018-03-28T07:42:45.537Z,19.87
2018-03-28T07:43:45.529Z,19.86
2018-03-28T07:44:45.556Z,19.87
2018-03-28T07:45:45.541Z,19.87
2018-03-28T07:46:45.525Z,19.88
2018-03-28T07:47:45.526Z,19.87
2018-03-28T07:48:45.523Z,19.83
2018-03-28T07:49:45.542Z,19.86
2018-03-28T07:50:45.532Z,19.89
2018-03-28T07:51:45.556Z,19.89
2018-03-28T07:52:45.529Z,19.92
2018-03-28T07:53:45.546Z,19.93
2018-03-28T07:54:45.690Z,19.95
2018-03-28T07:55:45.726Z,19.95
2018-03-28T07:56:45.515Z,19.97
2018-03-28T07:57:45.570Z,19.95
2018-03-28T07:58:45.542Z,19.98
2018-03-28T07:59:45.569Z,19.98
2018-03-28T08:00:45.514Z,20
2018-03-28T08:01:45.525Z,20.01
2018-03-28T08:02:45.528Z,20
2018-03-28T08:03:45.524Z,19.98
2018-03-28T08:04:45.558Z,20
2018-03-28T08:05:45.530Z,19.96
2018-03-28T08:06:45.515Z,19.99
2018-03-28T08:07:45.516Z,20.01
2018-03-28T08:08:45.525Z,20.01
2018-03-28T08:09:45.553Z,20.03
2018-03-28T08:10:45.542Z,20.04
2018-03-28T08:11:45.538Z,20.03
2018-03-28T08:12:45.538Z,20.05
2018-03-28T08:13:45.521Z,20.04
2018-03-28T08:14:45.538Z,20.04
2018-03-28T08:15:45.543Z,20.06
2018-03-28T08:16:45.527Z,20.06
2018-03-28T08:17:45.525Z,20.08
2018-03-28T08:18:45.510Z,20.1
2018-03-28T08:19:45.571Z,20.11
2018-03-28T08:20:45.506Z,20.11
2018-03-28T08:21:45.520Z,20.13
2018-03-28T08:22:45.524Z,20.13
2018-03-28T08:23:45.527Z,20.14
2018-03-28T08:24:45.519Z,20.14
2018-03-28T08:25:45.611Z,20.16
2018-03-28T08:26:45.555Z,20.16
2018-03-28T08:27:45.528Z,20.18
2018-03-28T08:28:45.517Z,20.19
2018-03-28T08:29:45.519Z,20.19
2018-03-28T08:30:45.538Z,20.21
2018-03-28T08:31:45.519Z,20.21
2018-03-28T08:32:45.518Z,20.21
2018-03-28T08:33:45.507Z,20.22
2018-03-28T08:34:45.518Z,20.23
2018-03-28T08:35:45.541Z,20.19
2018-03-28T08:36:45.515Z,20.22
2018-03-28T08:37:45.516Z,20.25
2018-03-28T08:38:45.512Z,20.23
2018-03-28T08:39:45.521Z,20.29
2018-03-28T08:40:45.546Z,20.31
2018-03-28T08:41:45.511Z,20.32
2018-03-28T08:42:45.510Z,20.33
2018-03-28T08:43:45.507Z,20.31
2018-03-28T08:44:45.505Z,20.32
2018-03-28T08:45:45.531Z,20.32
2018-03-28T08:46:45.508Z,20.31
2018-03-28T08:47:45.519Z,20.32
2018-03-28T08:48:45.510Z,20.31
2018-03-28T08:49:46.305Z,20.3
2018-03-28T08:50:45.541Z,20.28
2018-03-28T08:51:45.516Z,20.29
2018-03-28T08:52:45.519Z,20.32
2018-03-28T08:53:45.566Z,20.33
2018-03-28T08:54:45.533Z,20.33
2018-03-28T08:55:45.523Z,20.36
2018-03-28T08:56:45.664Z,20.37
2018-03-28T08:57:45.504Z,20.38
2018-03-28T08:58:45.522Z,20.36
2018-03-28T08:59:45.529Z,20.33
2018-03-28T09:00:45.593Z,20.33
2018-03-28T09:01:45.549Z,20.31
2018-03-28T09:02:45.572Z,20.22
2018-03-28T09:03:45.517Z,20.26
2018-03-28T09:04:45.589Z,20.3
2018-03-28T09:05:45.516Z,20.28
2018-03-28T09:06:45.534Z,20.32
2018-03-28T09:07:45.509Z,20.37
2018-03-28T09:08:45.509Z,20.36
2018-03-28T09:09:45.543Z,20.37
2018-03-28T09:10:45.539Z,20.38
2018-03-28T09:11:45.668Z,20.38
2018-03-28T09:12:45.511Z,20.38
2018-03-28T09:13:45.503Z,20.4
2018-03-28T09:14:45.502Z,20.36
2018-03-28T09:15:45.511Z,20.36
2018-03-28T09:16:45.539Z,20.39
2018-03-28T09:17:45.499Z,20.41
2018-03-28T09:18:45.506Z,20.42
2018-03-28T09:19:45.502Z,20.42
2018-03-28T09:20:45.509Z,20.44
2018-03-28T09:21:45.507Z,20.43
2018-03-28T09:22:45.520Z,20.44
2018-03-28T09:23:45.521Z,20.44
2018-03-28T09:24:45.494Z,20.44
2018-03-28T09:25:45.503Z,20.43
2018-03-28T09:26:45.517Z,20.44
2018-03-28T09:27:45.564Z,20.45
2018-03-28T09:28:45.516Z,20.44
2018-03-28T09:29:45.503Z,20.45
2018-03-28T09:30:45.492Z,20.45
2018-03-28T09:31:45.591Z,20.47
2018-03-28T09:32:45.586Z,20.48
2018-03-28T09:33:45.490Z,20.49
2018-03-28T09:34:45.481Z,20.5
2018-03-28T09:35:45.506Z,20.52
2018-03-28T09:36:45.592Z,20.51
2018-03-28T09:37:45.501Z,20.51
2018-03-28T09:38:45.500Z,20.52
2018-03-28T09:39:45.484Z,20.53
2018-03-28T09:40:45.596Z,20.54
2018-03-28T09:41:45.558Z,20.55
2018-03-28T09:42:45.655Z,20.55
2018-03-28T09:43:45.490Z,20.55
2018-03-28T09:44:45.500Z,20.57
2018-03-28T09:45:45.489Z,20.58
2018-03-28T09:46:45.526Z,20.59
2018-03-28T09:47:45.521Z,20.59
2018-03-28T09:48:45.485Z,20.6
2018-03-28T09:49:45.498Z,20.6
2018-03-28T09:50:45.484Z,20.58
2018-03-28T09:51:45.538Z,20.59
2018-03-28T09:52:45.490Z,20.63
2018-03-28T09:53:45.503Z,20.62
2018-03-28T09:54:45.528Z,20.6
2018-03-28T09:55:45.580Z,20.61
2018-03-28T09:56:45.630Z,20.6
2018-03-28T09:57:45.519Z,20.59
2018-03-28T09:58:45.557Z,20.57
2018-03-28T09:59:45.484Z,20.56
2018-03-28T10:00:45.514Z,20.56
2018-03-28T10:01:45.525Z,20.56
2018-03-28T10:02:45.481Z,20.56
2018-03-28T10:03:45.500Z,20.55
2018-03-28T10:04:45.482Z,20.55
2018-03-28T10:05:45.538Z,20.53
2018-03-28T10:06:45.535Z,20.52
2018-03-28T10:07:45.514Z,20.54
2018-03-28T10:08:45.485Z,20.53
2018-03-28T10:09:45.557Z,20.53
2018-03-28T10:10:45.505Z,20.54
2018-03-28T10:11:45.528Z,20.53
2018-03-28T10:12:45.505Z,20.54
2018-03-28T10:13:45.496Z,20.53
2018-03-28T10:14:45.506Z,20.51
2018-03-28T10:15:45.594Z,20.51
2018-03-28T10:16:45.499Z,20.53
2018-03-28T10:17:45.480Z,20.51
2018-03-28T10:18:45.517Z,20.53
2018-03-28T10:19:45.544Z,20.52
2018-03-28T10:20:45.479Z,20.52
2018-03-28T10:21:45.515Z,20.51
2018-03-28T10:22:45.489Z,20.51
2018-03-28T10:23:45.502Z,20.51
2018-03-28T10:24:45.488Z,20.49
2018-03-28T10:25:45.490Z,20.5
2018-03-28T10:26:45.499Z,20.48
2018-03-28T10:27:45.478Z,20.48
2018-03-28T10:28:45.698Z,20.48
2018-03-28T10:29:45.518Z,20.47
2018-03-28T10:30:45.489Z,20.47
2018-03-28T10:31:45.491Z,20.46
2018-03-28T10:32:45.511Z,20.46
2018-03-28T10:33:45.538Z,20.45
2018-03-28T10:34:45.493Z,20.45
2018-03-28T10:35:45.489Z,20.45
2018-03-28T10:36:45.530Z,20.44
2018-03-28T10:37:45.488Z,20.44
2018-03-28T10:38:45.508Z,20.44
2018-03-28T10:39:45.522Z,20.42
2018-03-28T10:40:45.495Z,20.43
2018-03-28T10:41:45.534Z,20.42
2018-03-28T10:42:45.497Z,20.43
2018-03-28T10:43:45.513Z,20.43
2018-03-28T10:44:45.481Z,20.35
2018-03-28T10:45:45.523Z,20.32
2018-03-28T10:46:45.459Z,20.31
2018-03-28T10:47:45.472Z,20.3
2018-03-28T10:48:45.688Z,20.31
2018-03-28T10:49:45.471Z,20.34
2018-03-28T10:50:45.483Z,20.33
2018-03-28T10:51:45.492Z,20.33
2018-03-28T10:52:45.487Z,20.35
2018-03-28T10:53:45.520Z,20.35
2018-03-28T10:54:45.521Z,20.36
2018-03-28T10:55:45.472Z,20.37
2018-03-28T10:56:45.467Z,20.36
2018-03-28T10:57:45.502Z,20.36
2018-03-28T10:58:45.490Z,20.37
2018-03-28T10:59:45.572Z,20.37
2018-03-28T11:00:45.465Z,20.37
2018-03-28T11:01:45.506Z,20.37
2018-03-28T11:02:45.516Z,20.36
2018-03-28T11:03:45.556Z,20.36
2018-03-28T11:04:45.796Z,20.37
2018-03-28T11:05:45.468Z,20.37
2018-03-28T11:06:45.448Z,20.37
2018-03-28T11:07:45.488Z,20.37
2018-03-28T11:08:45.472Z,20.33
2018-03-28T11:09:45.489Z,20.38
2018-03-28T11:10:45.495Z,20.39
2018-03-28T11:11:45.459Z,20.41
2018-03-28T11:12:45.485Z,20.43
2018-03-28T11:13:45.466Z,20.5
2018-03-28T11:14:45.494Z,20.49
2018-03-28T11:15:45.462Z,20.5
2018-03-28T11:16:45.474Z,20.48
2018-03-28T11:17:45.460Z,20.48
2018-03-28T11:18:45.460Z,20.49
2018-03-28T11:19:45.554Z,20.47
2018-03-28T11:20:45.595Z,20.48
2018-03-28T11:21:45.438Z,20.46
2018-03-28T11:22:45.462Z,20.46
2018-03-28T11:23:45.496Z,20.47
2018-03-28T11:24:45.462Z,20.44
2018-03-28T11:25:45.492Z,20.46
2018-03-28T11:26:45.466Z,20.46
2018-03-28T11:27:45.500Z,20.45
2018-03-28T11:28:45.481Z,20.45
2018-03-28T11:29:45.684Z,20.45
2018-03-28T11:30:45.645Z,20.46
2018-03-28T11:31:45.528Z,20.44
2018-03-28T11:32:45.499Z,20.45
2018-03-28T11:33:45.520Z,20.46
2018-03-28T11:34:45.506Z,20.45
2018-03-28T11:35:45.461Z,20.44
2018-03-28T11:36:45.488Z,20.45
2018-03-28T11:37:45.464Z,20.44
2018-03-28T11:38:45.501Z,20.45
2018-03-28T11:39:45.432Z,20.45
2018-03-28T11:40:45.493Z,20.43
2018-03-28T11:41:45.461Z,20.45
2018-03-28T11:42:45.435Z,20.46
2018-03-28T11:43:45.474Z,20.45
2018-03-28T11:44:45.447Z,20.45
2018-03-28T11:45:45.453Z,20.45
2018-03-28T11:46:45.495Z,20.45
2018-03-28T11:47:45.467Z,20.47
2018-03-28T11:48:45.480Z,20.46
2018-03-28T11:49:45.473Z,20.47
2018-03-28T11:50:45.483Z,20.45
2018-03-28T11:51:45.457Z,20.46
2018-03-28T11:52:45.450Z,20.47
2018-03-28T11:53:45.443Z,20.45
2018-03-28T11:54:45.473Z,20.47
2018-03-28T11:55:45.450Z,20.48
2018-03-28T11:56:45.559Z,20.47
2018-03-28T11:57:45.529Z,20.44
2018-03-28T11:58:45.458Z,20.47
2018-03-28T11:59:45.473Z,20.47
2018-03-28T12:00:45.442Z,20.48
2018-03-28T12:01:45.473Z,20.49
2018-03-28T12:02:45.471Z,20.5
2018-03-28T12:03:45.438Z,20.51
2018-03-28T12:04:45.751Z,20.52
2018-03-28T12:05:45.453Z,20.52
2018-03-28T12:06:45.463Z,20.54
2018-03-28T12:07:45.452Z,20.53
2018-03-28T12:08:45.450Z,20.5
2018-03-28T12:09:45.475Z,20.5
2018-03-28T12:10:45.451Z,20.51
2018-03-28T12:11:45.478Z,20.52
2018-03-28T12:12:45.433Z,20.51
2018-03-28T12:13:45.453Z,20.51
2018-03-28T12:14:45.638Z,20.52
2018-03-28T12:15:45.438Z,20.51
2018-03-28T12:16:45.451Z,20.51
2018-03-28T12:17:45.452Z,20.52
2018-03-28T12:18:45.473Z,20.52
2018-03-28T12:19:45.509Z,20.53
2018-03-28T12:20:45.450Z,20.53
2018-03-28T12:21:45.457Z,20.54
2018-03-28T12:22:45.468Z,20.55
2018-03-28T12:23:45.462Z,20.57
2018-03-28T12:24:45.472Z,20.58
2018-03-28T12:25:45.454Z,20.59
2018-03-28T12:26:45.462Z,20.6
2018-03-28T12:27:45.483Z,20.59
2018-03-28T12:28:45.451Z,20.62
2018-03-28T12:29:45.673Z,20.62
2018-03-28T12:30:45.446Z,20.62
2018-03-28T12:31:45.497Z,20.65
2018-03-28T12:32:45.437Z,20.62
2018-03-28T12:33:45.441Z,20.64
2018-03-28T12:34:45.474Z,20.68
2018-03-28T12:35:45.442Z,20.67
2018-03-28T12:36:45.594Z,20.71
2018-03-28T12:37:45.434Z,20.72
2018-03-28T12:38:45.447Z,20.71
2018-03-28T12:39:45.604Z,20.72
2018-03-28T12:40:45.436Z,20.75
2018-03-28T12:41:45.520Z,20.75
2018-03-28T12:42:45.455Z,20.81
2018-03-28T12:43:45.445Z,20.8
2018-03-28T12:44:45.475Z,20.79
2018-03-28T12:45:45.453Z,20.78
2018-03-28T12:46:45.433Z,20.77
2018-03-28T12:47:45.437Z,20.77
2018-03-28T12:48:45.459Z,20.75
2018-03-28T12:49:45.502Z,20.76
2018-03-28T12:50:45.435Z,20.75
2018-03-28T12:51:45.506Z,20.75
2018-03-28T12:52:45.431Z,20.74
2018-03-28T12:53:45.430Z,20.71
2018-03-28T12:54:45.474Z,20.7